Nearby METAR Reports

 

KBAX - Bad Axe, Michigan, USA
Distance from station: ESE 22mi, 35km
Updated: Wed, 23-Sep-2020 5:55am EDT
Overcast
Overcast
 Wind from SE
Wind: SE 3 mph , 6 km/h
Temperature: 46°F , 8°C
Dew Point: 46°F , 8°C
Humidity: 100%
Barometer: 30.00 inHg , 1015.9 hPa
Clouds: Overcast
Visibility: 3/4 mile , 1.2 km
Cloud details: Overcast 500 ft
2020/09/23 09:55 KBAX 230955Z AUTO 13003KT 3/4SM VV005 08/08 A3000 RMK AO2 T00770076 PWINO
KFNT - Flint, Michigan, USA
Distance from station: SSW 68mi, 109km
Updated: Wed, 23-Sep-2020 5:53am EDT
Clear
Clear
 Wind from S
Wind: S 3 mph , 6 km/h
Temperature: 50°F , 10°C
Dew Point: 48°F , 9°C
Humidity: 94%
Barometer: 30.04 inHg , 1017.3 hPa
Clouds: Clear
Visibility: 10 miles , 16 km
2020/09/23 09:53 KFNT 230953Z 19003KT 10SM CLR 10/09 A3004 RMK AO2 SLP172 T01000089 $
KMBS - Saginaw, Michigan, USA
Distance from station: SW 44mi, 70km
Updated: Wed, 23-Sep-2020 5:53am EDT
Clear
Clear
 Wind from S
Wind: S 7 mph , 11 km/h
Temperature: 54°F , 12°C
Dew Point: 48°F , 9°C
Humidity: 82%
Barometer: 30.03 inHg , 1016.9 hPa
Clouds: Clear
Visibility: 8 miles , 13 km
2020/09/23 09:53 KMBS 230953Z 19006KT 8SM CLR 12/09 A3003 RMK AO2 SLP167 T01220089
 
KDTW - Detroit/Wayne, Michigan, USA
Distance from station: SSE 117mi, 188km
Updated: Wed, 23-Sep-2020 5:53am EDT
Few Clouds
Few Clouds
 Wind from SSW
Wind: SSW 6 mph , 9 km/h
Temperature: 52°F , 11°C
Dew Point: 48°F , 9°C
Humidity: 88%
Barometer: 30.05 inHg , 1017.6 hPa
Clouds: Few Clouds
Visibility: 8 miles , 13 km
Cloud details: Few Clouds 25000 ft
2020/09/23 09:53 KDTW 230953Z 21005KT 8SM FEW250 11/09 A3005 RMK AO2 SLP174 T01110089
KP58 - Port Hope, Michigan, USA
Distance from station: ENE 30mi, 48km
Updated: Wed, 23-Sep-2020 5:51am EDT

 Wind from WSW
Wind: WSW 6 mph , 9 km/h
Temperature: 55°F , 13°C
Dew Point: 52°F , 11°C
Humidity: 88%
Barometer: 29.98 inHg , 1015.2 hPa
2020/09/23 09:51 KP58 230951Z AUTO 24005KT 13/11 A2998 RMK AO1 SLP148 T01330111
KCFS - Caro/Tuscola, Michigan, USA
Distance from station: S 31mi, 50km
Updated: Wed, 23-Sep-2020 5:55am EDT
Mist, Overcast
Mist, Overcast
 Wind from calm
Wind: Calm
Temperature: 46°F , 8°C
Dew Point: 45°F , 7°C
Humidity: 93%
Barometer: 30.01 inHg , 1016.3 hPa
Summary: Mist
Clouds: Overcast
Visibility: 1 1/2 miles , 2.4 km
Cloud details: Overcast 700 ft
2020/09/23 09:55 KCFS 230955Z AUTO 00000KT 1 1/2SM BR VV007 08/07 A3001 RMK AO2 T00750067
 
KPHN - Port Huron, Michigan, USA
Distance from station: SSE 81mi, 131km
Updated: Wed, 23-Sep-2020 5:17am EDT
Clear
Clear
 Wind from calm
Wind: Calm
Temperature: 48°F , 9°C
Dew Point: 46°F , 8°C
Humidity: 94%
Barometer: 30.02 inHg , 1016.6 hPa
Clouds: Clear
Visibility: 7 miles , 11 km
2020/09/23 09:17 KPHN 230917Z AUTO 00000KT 7SM CLR 09/08 A3002 RMK AO2
KPTK - Pontiac, Michigan, USA
Distance from station: S 86mi, 138km
Updated: Wed, 23-Sep-2020 5:53am EDT
Few Clouds
Few Clouds
 Wind from calm
Wind: Calm
Temperature: 52°F , 11°C
Dew Point: 48°F , 9°C
Humidity: 88%
Barometer: 30.02 inHg , 1016.6 hPa
Clouds: Few Clouds
Visibility: 10 miles , 16 km
Cloud details: Few Clouds 25000 ft
2020/09/23 09:53 KPTK 230953Z 00000KT 10SM FEW250 11/09 A3002 RMK AO2 SLP164 T01060094
KMTC - Selfridge Angb, Michigan, USA
Distance from station: SSE 94mi, 151km
Updated: Wed, 23-Sep-2020 4:56am EDT
Clear
Clear
 Wind from W
Wind: W 3 mph , 6 km/h
Temperature: 52°F , 11°C
Dew Point: 52°F , 11°C
Humidity: 100%
Barometer: 30.01 inHg , 1016.3 hPa
Clouds: Clear
Visibility: 10 miles , 16 km
2020/09/23 08:56 KMTC 230856Z AUTO 28003KT 10SM CLR 11/11 A3001 RMK AO2 SLP167 T01080108 57004 $